Time;durP1;ratioP1;P1;durP2;ratioP2;P2;SDS_P1;SDS_P2;PMS_P1;PMS_P2;Temp;Humidity;BMP_temperature;BMP_pressure;BME280_temperature;BME280_humidity;BME280_pressure;Samples;Min_cycle;Max_cycle;Signal;HPM_P1;HPM_P2
2022/02/19 00:02:25;;;;;;;3.03;1.38;;;-3.00;99.90;;;;;;4916633;29;20032;-73
2022/02/19 00:04:51;;;;;;;3.05;1.25;;;-3.00;99.90;;;;;;4916743;29;20035;-73
2022/02/19 00:07:16;;;;;;;5.75;1.52;;;-3.00;99.90;;;;;;4916574;29;20032;-73
2022/02/19 00:09:42;;;;;;;6.35;1.35;;;-3.00;99.90;;;;;;4916998;29;20035;-73
2022/02/19 00:12:08;;;;;;;2.10;1.13;;;-3.00;99.90;;;;;;4916481;29;20384;-73
2022/02/19 00:14:34;;;;;;;2.72;1.35;;;-3.00;99.90;;;;;;4916591;29;20059;-73
2022/02/19 00:17:03;;;;;;;2.17;1.55;;;-3.00;99.90;;;;;;4916547;29;20476;-73
2022/02/19 00:19:30;;;;;;;7.00;1.30;;;-3.00;99.90;;;;;;4916604;29;20606;-73
2022/02/19 00:21:56;;;;;;;2.20;1.20;;;-3.00;99.90;;;;;;4916512;29;20032;-73
2022/02/19 00:24:21;;;;;;;5.20;1.52;;;-3.00;99.90;;;;;;4916441;29;20024;-73
2022/02/19 00:26:47;;;;;;;5.28;1.60;;;-3.10;99.90;;;;;;4916390;29;20392;-74
2022/02/19 00:29:13;;;;;;;3.08;1.35;;;-3.10;99.90;;;;;;4916586;29;20068;-74
2022/02/19 00:31:39;;;;;;;3.45;1.42;;;-3.10;99.90;;;;;;4916425;29;20504;-74
2022/02/19 00:34:06;;;;;;;4.60;1.23;;;-3.10;99.90;;;;;;4916227;29;20432;-74
2022/02/19 00:36:31;;;;;;;2.08;1.67;;;-3.10;99.90;;;;;;4916438;29;20063;-74
2022/02/19 00:38:58;;;;;;;3.08;1.17;;;-3.10;99.90;;;;;;4916197;29;20083;-74
2022/02/19 00:41:24;;;;;;;2.92;1.38;;;-3.10;99.90;;;;;;4914874;29;20099;-74
2022/02/19 00:43:51;;;;;;;3.35;1.50;;;-3.10;99.90;;;;;;4914422;29;20472;-74
2022/02/19 00:46:17;;;;;;;2.03;1.40;;;-3.10;99.90;;;;;;4916044;29;20510;-74
2022/02/19 00:48:43;;;;;;;4.57;1.70;;;-3.10;99.90;;;;;;4916103;29;20119;-74
2022/02/19 00:51:08;;;;;;;3.40;1.63;;;-3.00;99.90;;;;;;4915956;29;20063;-74
2022/02/19 00:53:34;;;;;;;3.08;1.45;;;-3.10;99.90;;;;;;4914693;29;20031;-74
2022/02/19 00:56:00;;;;;;;4.40;2.60;;;-3.10;99.90;;;;;;4914688;29;20040;-76
2022/02/19 00:58:26;;;;;;;3.35;1.38;;;-3.10;99.90;;;;;;4915847;29;20024;-77
2022/02/19 01:00:52;;;;;;;2.22;1.20;;;-3.10;99.90;;;;;;4916054;29;20036;-77
2022/02/19 01:03:18;;;;;;;2.28;1.35;;;-3.10;99.90;;;;;;4915856;29;20028;-77
2022/02/19 01:05:44;;;;;;;3.60;1.73;;;-3.10;99.90;;;;;;4915902;29;20071;-77
2022/02/19 01:08:10;;;;;;;4.18;1.40;;;-3.10;99.90;;;;;;4916068;29;20032;-77
2022/02/19 01:10:37;;;;;;;5.68;1.15;;;-3.10;99.90;;;;;;4915956;29;20388;-77
2022/02/19 01:13:03;;;;;;;1.33;1.10;;;-3.10;99.90;;;;;;4915816;29;20028;-77
2022/02/19 01:15:29;;;;;;;3.45;1.65;;;-3.10;99.90;;;;;;4915637;29;20044;-77
2022/02/19 01:17:56;;;;;;;2.28;1.70;;;-3.10;99.90;;;;;;4915767;29;20121;-77
2022/02/19 01:20:22;;;;;;;2.90;1.30;;;-3.10;99.90;;;;;;4915745;29;20020;-77
2022/02/19 01:22:48;;;;;;;3.30;1.40;;;-3.10;99.90;;;;;;4915810;29;20040;-77
2022/02/19 01:25:15;;;;;;;4.85;1.70;;;-3.10;99.90;;;;;;4915611;29;20039;-73
2022/02/19 01:27:40;;;;;;;4.35;1.30;;;-3.10;99.90;;;;;;4915590;29;20036;-73
2022/02/19 01:30:07;;;;;;;3.88;2.00;;;-3.10;99.90;;;;;;4915617;29;20032;-72
2022/02/19 01:32:34;;;;;;;5.53;1.30;;;-3.10;99.90;;;;;;4915643;29;20048;-72
2022/02/19 01:34:59;;;;;;;2.40;1.30;;;-3.10;99.90;;;;;;4915506;29;20056;-72
2022/02/19 01:37:26;;;;;;;2.55;1.17;;;-3.10;99.90;;;;;;4915280;29;20025;-75
2022/02/19 01:39:52;;;;;;;2.63;1.35;;;-3.10;99.90;;;;;;4914382;29;20116;-75
2022/02/19 01:42:17;;;;;;;2.95;1.52;;;-3.00;99.90;;;;;;4915648;29;20119;-75
2022/02/19 01:44:46;;;;;;;4.43;1.20;;;-3.10;99.90;;;;;;4915574;29;20396;-76
2022/02/19 01:47:13;;;;;;;2.42;1.27;;;-3.10;99.90;;;;;;4915429;29;20028;-77
2022/02/19 01:49:39;;;;;;;1.10;1.00;;;-3.10;99.90;;;;;;4915498;29;20072;-76
2022/02/19 01:52:11;;;;;;;3.03;1.50;;;-3.10;99.90;;;;;;4915798;29;20028;-76
2022/02/19 01:54:37;;;;;;;3.42;1.42;;;-3.10;99.90;;;;;;4917252;29;20103;-76
2022/02/19 01:57:04;;;;;;;2.67;1.30;;;-3.10;99.90;;;;;;4919085;29;20491;-76
2022/02/19 01:59:30;;;;;;;5.43;1.38;;;-3.20;99.90;;;;;;4919003;29;20028;-74
2022/02/19 02:01:55;;;;;;;4.15;1.27;;;-3.10;99.90;;;;;;4919135;29;20084;-74
2022/02/19 02:04:21;;;;;;;4.03;1.40;;;-3.10;99.90;;;;;;4919224;29;20028;-74
2022/02/19 02:06:48;;;;;;;4.45;1.30;;;-3.10;99.90;;;;;;4918886;29;20020;-73
2022/02/19 02:09:17;;;;;;;3.67;1.67;;;-3.20;99.90;;;;;;4918862;29;20040;-73
2022/02/19 02:11:45;;;;;;;2.70;1.42;;;-3.20;99.90;;;;;;4918792;29;20032;-73
2022/02/19 02:14:11;;;;;;;3.70;1.60;;;-3.20;99.90;;;;;;4918726;29;20504;-73
2022/02/19 02:16:43;;;;;;;6.28;1.33;;;-3.20;99.90;;;;;;4919092;29;20077;-73
2022/02/19 02:19:10;;;;;;;4.60;1.30;;;-3.20;99.90;;;;;;4918576;29;20157;-73
2022/02/19 02:21:39;;;;;;;3.60;1.27;;;-3.20;99.90;;;;;;4918682;29;20032;-73
2022/02/19 02:55:53;;;;;;;2.60;1.48;;;-3.40;99.90;;;;;;4917552;29;20056;-73
2022/02/19 02:58:19;;;;;;;1.73;1.05;;;-3.40;99.90;;;;;;4918019;29;20021;-73
2022/02/19 03:00:45;;;;;;;3.90;1.45;;;-3.50;99.90;;;;;;4917974;29;20028;-73
2022/02/19 03:03:11;;;;;;;2.75;1.45;;;-3.50;99.90;;;;;;4917796;29;20063;-73
2022/02/19 03:36:41;;;;;;;2.78;1.60;;;-3.60;99.90;;;;;;5947571;23;20043;-74
2022/02/19 03:39:07;;;;;;;2.15;1.20;;;-3.70;99.90;;;;;;4971348;28;20551;-75
2022/02/19 03:41:34;;;;;;;2.83;1.25;;;-3.70;99.90;;;;;;4974506;28;20019;-75
2022/02/19 03:44:00;;;;;;;3.35;1.60;;;-3.80;99.90;;;;;;4974459;28;20026;-75
2022/02/19 03:46:27;;;;;;;2.08;1.60;;;-3.80;99.90;;;;;;4974869;28;20114;-75
2022/02/19 03:48:52;;;;;;;3.67;1.55;;;-3.80;99.90;;;;;;4974418;28;20573;-73
2022/02/19 03:51:18;;;;;;;4.60;1.55;;;-3.80;99.90;;;;;;4974429;28;20062;-73
2022/02/19 03:53:44;;;;;;;1.35;1.25;;;-3.90;99.90;;;;;;4973190;28;20030;-73
2022/02/19 03:56:10;;;;;;;3.72;1.40;;;-3.90;99.90;;;;;;4972923;28;20394;-73
2022/02/19 03:58:35;;;;;;;2.58;1.27;;;-3.90;99.90;;;;;;4974307;28;20027;-74
2022/02/19 04:01:02;;;;;;;3.42;1.30;;;-3.80;99.90;;;;;;4974159;28;20422;-72
2022/02/19 04:03:28;;;;;;;7.20;2.08;;;-3.90;99.90;;;;;;4974539;28;20101;-74
2022/02/19 04:05:55;;;;;;;2.33;1.25;;;-3.90;99.90;;;;;;4974260;28;20038;-73
2022/02/19 04:08:20;;;;;;;3.80;1.40;;;-4.00;99.90;;;;;;4974052;28;20556;-73
2022/02/19 04:10:46;;;;;;;3.13;1.45;;;-4.00;99.90;;;;;;4972912;28;20087;-73
2022/02/19 04:13:12;;;;;;;2.50;1.10;;;-4.10;99.90;;;;;;4973958;28;20045;-74
2022/02/19 04:15:38;;;;;;;4.13;1.30;;;-4.10;99.90;;;;;;4974276;28;20072;-74
2022/02/19 04:18:04;;;;;;;3.38;1.40;;;-4.10;99.90;;;;;;4972938;28;20505;-74
2022/02/19 04:20:30;;;;;;;2.13;1.27;;;-4.10;99.90;;;;;;4974283;28;20413;-73
2022/02/19 04:22:56;;;;;;;1.90;1.30;;;-4.20;99.90;;;;;;4973864;28;20023;-73
2022/02/19 04:25:25;;;;;;;1.88;1.20;;;-4.20;99.90;;;;;;4973811;28;20490;-74
2022/02/19 04:27:53;;;;;;;1.40;1.23;;;-4.10;99.90;;;;;;4973807;28;20034;-74
2022/02/19 04:30:18;;;;;;;3.33;1.73;;;-4.10;99.90;;;;;;4973758;28;20065;-74
2022/02/19 04:32:44;;;;;;;2.38;1.45;;;-4.10;99.90;;;;;;4974110;28;20055;-73
2022/02/19 04:35:10;;;;;;;3.28;1.45;;;-4.10;99.90;;;;;;4973950;28;20117;-73
2022/02/19 04:37:36;;;;;;;3.08;1.40;;;-4.10;99.90;;;;;;4963702;28;20044;-73
2022/02/19 04:40:04;;;;;;;4.32;1.50;;;-4.20;99.90;;;;;;4954281;28;20513;-73
2022/02/19 04:42:30;;;;;;;3.25;1.38;;;-4.30;99.90;;;;;;4954319;28;20160;-74
2022/02/19 04:44:55;;;;;;;3.55;1.55;;;-4.30;99.90;;;;;;4954326;28;20031;-73
2022/02/19 04:47:21;;;;;;;4.07;1.40;;;-4.30;99.90;;;;;;4954309;29;20031;-74
2022/02/19 04:49:48;;;;;;;4.85;1.17;;;-4.30;99.90;;;;;;4954161;28;20067;-73
2022/02/19 04:52:14;;;;;;;3.92;1.85;;;-4.30;99.90;;;;;;4954089;28;20020;-74
2022/02/19 04:54:40;;;;;;;3.50;1.23;;;-4.40;99.90;;;;;;4954077;28;20035;-74
2022/02/19 04:57:06;;;;;;;6.65;1.45;;;-4.50;99.90;;;;;;4954036;28;20027;-74
2022/02/19 04:59:32;;;;;;;5.53;1.42;;;-4.60;99.90;;;;;;4954008;28;20034;-74
2022/02/19 05:01:58;;;;;;;2.25;1.60;;;-4.70;99.90;;;;;;4954081;29;20036;-73
2022/02/19 05:04:24;;;;;;;4.80;1.50;;;-4.60;99.90;;;;;;4953948;28;20067;-73
2022/02/19 05:06:49;;;;;;;4.40;1.70;;;-4.60;99.90;;;;;;4954282;29;20501;-72
2022/02/19 05:09:15;;;;;;;2.63;1.27;;;-4.60;99.90;;;;;;4952446;29;20518;-73
2022/02/19 05:11:41;;;;;;;1.80;1.58;;;-4.60;99.90;;;;;;4954039;28;20074;-73
2022/02/19 05:14:07;;;;;;;2.50;1.30;;;-4.60;99.90;;;;;;4953929;29;20043;-74
2022/02/19 05:16:33;;;;;;;2.25;1.40;;;-4.60;99.90;;;;;;4953985;29;20031;-74
2022/02/19 05:18:58;;;;;;;3.67;1.35;;;-4.50;99.90;;;;;;4953944;28;20040;-74
2022/02/19 05:21:24;;;;;;;5.93;1.60;;;-4.60;99.90;;;;;;4953820;29;20078;-73
2022/02/19 05:23:50;;;;;;;4.20;1.40;;;-4.60;99.90;;;;;;4952584;29;20027;-74
2022/02/19 05:26:15;;;;;;;2.22;1.40;;;-4.60;99.90;;;;;;4952488;29;20122;-75
2022/02/19 05:28:41;;;;;;;2.55;1.33;;;-4.60;99.90;;;;;;4954265;28;20027;-73
2022/02/19 05:31:08;;;;;;;2.90;1.40;;;-4.70;99.90;;;;;;4957707;28;20033;-67
2022/02/19 05:33:33;;;;;;;2.78;1.40;;;-4.70;99.90;;;;;;4957690;28;20069;-66
2022/02/19 05:35:59;;;;;;;4.78;1.42;;;-4.70;99.90;;;;;;4957656;29;20625;-69
2022/02/19 05:38:25;;;;;;;8.10;1.73;;;-4.70;99.90;;;;;;4957164;28;20383;-68
2022/02/19 05:40:54;;;;;;;3.20;1.52;;;-4.70;99.90;;;;;;4957670;28;20632;-69
2022/02/19 05:43:20;;;;;;;3.75;1.40;;;-4.30;99.90;;;;;;4957144;28;20082;-70
2022/02/19 05:45:47;;;;;;;4.10;1.70;;;-4.00;99.90;;;;;;4940625;29;20540;-72
2022/02/19 05:48:14;;;;;;;2.55;1.08;;;-4.30;99.90;;;;;;4937813;29;20023;-72
2022/02/19 05:50:39;;;;;;;3.53;1.60;;;-4.50;99.90;;;;;;4937778;29;20514;-70
2022/02/19 05:53:06;;;;;;;1.95;1.10;;;-4.70;99.90;;;;;;4937785;29;20039;-75
2022/02/19 05:55:32;;;;;;;2.47;1.42;;;-4.80;99.90;;;;;;4937949;29;20614;-70
2022/02/19 05:57:58;;;;;;;2.30;1.45;;;-5.00;99.90;;;;;;4937193;29;20066;-69
2022/02/19 06:00:25;;;;;;;3.33;1.38;;;-5.10;99.90;;;;;;4937738;29;20027;-69
2022/02/19 06:02:51;;;;;;;2.00;1.30;;;-5.10;99.90;;;;;;4937248;29;20020;-69
2022/02/19 06:05:17;;;;;;;3.97;1.25;;;-5.10;99.90;;;;;;4937412;29;20133;-69
2022/02/19 06:07:43;;;;;;;3.28;1.48;;;-5.20;99.90;;;;;;4937751;29;20063;-69
2022/02/19 06:10:09;;;;;;;4.03;1.30;;;-5.30;99.90;;;;;;4937862;29;20039;-69
2022/02/19 06:12:35;;;;;;;2.85;1.20;;;-5.30;99.90;;;;;;4937957;29;20031;-70
2022/02/19 06:15:01;;;;;;;2.08;1.42;;;-5.40;99.90;;;;;;4937709;29;20387;-69
2022/02/19 06:17:28;;;;;;;1.85;1.40;;;-5.30;99.90;;;;;;4937646;29;20188;-74
2022/02/19 06:19:53;;;;;;;2.17;1.50;;;-5.30;99.90;;;;;;4937884;29;20031;-74
2022/02/19 06:22:19;;;;;;;2.45;1.38;;;-5.30;99.90;;;;;;4937406;29;20028;-69
2022/02/19 06:24:45;;;;;;;1.70;1.30;;;-5.30;99.90;;;;;;4937712;29;20043;-70
2022/02/19 06:27:11;;;;;;;3.13;1.63;;;-5.30;99.90;;;;;;4937522;29;20031;-71
2022/02/19 06:29:37;;;;;;;3.45;1.73;;;-5.30;99.90;;;;;;4937096;29;20132;-70
2022/02/19 06:32:03;;;;;;;3.15;1.80;;;-5.00;99.90;;;;;;4937578;29;20031;-70
2022/02/19 06:34:29;;;;;;;5.05;2.38;;;-5.00;99.90;;;;;;4937123;29;20620;-70
2022/02/19 06:36:55;;;;;;;5.35;2.88;;;-5.10;99.90;;;;;;4937178;29;20069;-70
2022/02/19 06:39:21;;;;;;;4.32;2.38;;;-5.20;99.90;;;;;;4935948;29;20144;-70
2022/02/19 06:41:46;;;;;;;2.17;1.80;;;-5.40;99.90;;;;;;4936286;29;20035;-70
2022/02/19 06:44:12;;;;;;;2.92;1.58;;;-5.40;99.90;;;;;;4937141;29;20027;-69
2022/02/19 06:46:38;;;;;;;2.80;1.35;;;-5.50;99.90;;;;;;4937248;29;20024;-70
2022/02/19 06:49:04;;;;;;;3.67;1.40;;;-5.50;99.90;;;;;;4937174;29;20121;-69
2022/02/19 06:51:30;;;;;;;2.10;1.50;;;-5.60;99.90;;;;;;4937102;29;20032;-73
2022/02/19 06:53:56;;;;;;;2.17;1.70;;;-5.60;99.90;;;;;;4937136;29;20031;-73
2022/02/19 06:56:26;;;;;;;3.83;1.48;;;-5.60;99.90;;;;;;4936963;29;20099;-73
2022/02/19 06:58:58;;;;;;;3.10;1.45;;;-5.60;99.90;;;;;;4937072;29;20055;-69
2022/02/19 07:01:28;;;;;;;1.25;1.15;;;-5.50;99.90;;;;;;4936992;29;20384;-71
2022/02/19 07:03:56;;;;;;;3.40;1.35;;;-5.50;99.90;;;;;;4937111;29;20035;-68
2022/02/19 07:06:23;;;;;;;2.35;1.38;;;-5.00;99.90;;;;;;4936890;29;20075;-71
2022/02/19 07:08:49;;;;;;;2.13;1.20;;;-3.90;99.90;;;;;;4935599;29;20036;-71
2022/02/19 07:11:15;;;;;;;3.05;1.40;;;-3.60;99.90;;;;;;4936659;29;20031;-70
2022/02/19 07:13:40;;;;;;;2.55;1.38;;;-4.00;99.90;;;;;;4936773;29;20027;-70
2022/02/19 07:16:07;;;;;;;3.10;1.58;;;-4.40;99.90;;;;;;4936708;29;20089;-70
2022/02/19 07:18:33;;;;;;;1.30;1.20;;;-4.70;99.90;;;;;;4936514;29;20051;-70
2022/02/19 07:20:59;;;;;;;1.40;1.30;;;-4.80;99.90;;;;;;4934452;29;20027;-70
2022/02/19 07:23:25;;;;;;;4.10;1.58;;;-5.10;99.90;;;;;;4935121;29;20038;-70
2022/02/19 07:25:51;;;;;;;3.78;1.88;;;-5.20;99.90;;;;;;4936157;29;20020;-75
2022/02/19 07:28:17;;;;;;;5.60;1.90;;;-5.20;99.90;;;;;;4936533;29;20055;-75
2022/02/19 07:30:43;;;;;;;3.03;1.80;;;-5.30;99.90;;;;;;4936694;29;20110;-73
2022/02/19 07:33:10;;;;;;;2.63;1.50;;;-5.30;99.90;;;;;;4929639;29;20032;-74
2022/02/19 07:35:36;;;;;;;1.88;1.30;;;-5.30;99.90;;;;;;4933906;29;20380;-69
2022/02/19 07:38:03;;;;;;;1.63;1.20;;;-5.20;99.90;;;;;;4935300;29;20130;-72
2022/02/19 07:40:29;;;;;;;3.97;1.60;;;-5.20;99.90;;;;;;4935292;29;20820;-75
2022/02/19 07:42:55;;;;;;;3.80;1.38;;;-5.20;99.90;;;;;;4933880;29;20376;-73
2022/02/19 07:45:24;;;;;;;2.83;1.50;;;-5.20;99.90;;;;;;4934247;29;20059;-72
2022/02/19 07:47:50;;;;;;;3.55;1.23;;;-5.20;99.90;;;;;;4934360;29;20107;-74
2022/02/19 07:58:33;;;;;;;2.35;1.70;;;-5.20;99.90;;;;;;4931488;29;20044;-69
2022/02/19 08:01:04;;;;;;;1.27;1.17;;;-5.20;99.90;;;;;;4934232;29;20558;-69
2022/02/19 08:03:31;;;;;;;1.77;1.30;;;-5.10;99.90;;;;;;4935134;29;20035;-69
2022/02/19 08:05:58;;;;;;;2.35;1.50;;;-5.10;99.90;;;;;;4935635;29;20027;-70
2022/02/19 08:08:24;;;;;;;2.03;1.30;;;-5.00;99.90;;;;;;4935253;29;20024;-70
2022/02/19 08:10:50;;;;;;;4.75;1.48;;;-5.00;99.90;;;;;;4935723;29;20034;-68
2022/02/19 08:13:17;;;;;;;4.45;2.00;;;-5.00;99.90;;;;;;4935401;29;20028;-69
2022/02/19 08:15:45;;;;;;;19.20;5.75;;;-4.90;99.90;;;;;;4935798;29;20063;-67
2022/02/19 08:18:12;;;;;;;4.32;2.00;;;-4.90;99.90;;;;;;4931978;29;20023;-67
2022/02/19 08:20:40;;;;;;;12.68;5.65;;;-4.80;99.90;;;;;;4931232;29;20052;-68
2022/02/19 08:23:07;;;;;;;7.25;2.58;;;-4.80;99.90;;;;;;4935142;29;20075;-68
2022/02/19 08:25:34;;;;;;;5.25;2.13;;;-4.70;99.90;;;;;;4935372;29;20502;-68
2022/02/19 08:28:00;;;;;;;4.28;2.63;;;-4.70;99.90;;;;;;4933964;29;20443;-68
2022/02/19 08:30:26;;;;;;;3.03;1.58;;;-4.60;99.90;;;;;;4934749;29;20475;-68
2022/02/19 08:32:52;;;;;;;9.35;2.92;;;-4.60;99.90;;;;;;4935385;29;20035;-73
2022/02/19 08:35:18;;;;;;;7.90;3.58;;;-4.50;99.90;;;;;;4935015;29;20071;-67
2022/02/19 08:37:44;;;;;;;5.25;2.03;;;-4.50;99.90;;;;;;4934915;29;20052;-66
2022/02/19 08:40:12;;;;;;;3.13;1.65;;;-4.40;99.90;;;;;;4935102;29;20082;-66
2022/02/19 08:42:38;;;;;;;2.67;1.77;;;-3.70;99.90;;;;;;4935452;29;20099;-69
2022/02/19 08:45:06;;;;;;;6.10;2.15;;;-2.70;99.90;;;;;;4935108;29;20555;-69
2022/02/19 08:47:33;;;;;;;4.18;2.00;;;-2.10;99.90;;;;;;4934875;29;20043;-68
2022/02/19 08:50:03;;;;;;;4.63;2.53;;;-2.20;99.90;;;;;;4935283;29;20032;-68
2022/02/19 08:52:28;;;;;;;4.50;1.60;;;-2.50;99.90;;;;;;4934979;29;20084;-68
2022/02/19 08:54:54;;;;;;;4.00;1.40;;;-2.80;99.90;;;;;;4934874;29;20040;-68
2022/02/19 08:57:20;;;;;;;3.22;1.50;;;-3.10;99.90;;;;;;4934886;29;20106;-68
2022/02/19 08:59:46;;;;;;;4.18;1.80;;;-3.30;99.90;;;;;;4933656;29;20027;-68
2022/02/19 09:02:12;;;;;;;2.35;1.55;;;-3.30;99.90;;;;;;4934911;29;20034;-68
2022/02/19 09:04:37;;;;;;;2.15;1.17;;;-3.40;99.90;;;;;;4934253;29;20031;-68
2022/02/19 09:07:03;;;;;;;3.50;1.35;;;-3.40;99.90;;;;;;4934867;29;20020;-68
2022/02/19 09:09:29;;;;;;;4.05;1.55;;;-3.50;99.90;;;;;;4934007;29;20027;-68
2022/02/19 09:11:55;;;;;;;2.10;1.40;;;-3.40;99.90;;;;;;4934039;29;20039;-68
2022/02/19 09:14:21;;;;;;;3.50;1.20;;;-3.40;99.90;;;;;;4934345;29;20035;-68
2022/02/19 09:16:46;;;;;;;3.63;1.50;;;-3.40;99.90;;;;;;4934252;29;20038;-69
2022/02/19 09:19:12;;;;;;;2.65;1.63;;;-3.30;99.90;;;;;;4934268;29;20031;-68
2022/02/19 09:21:40;;;;;;;4.03;1.42;;;-3.30;99.90;;;;;;4934204;29;20038;-68
2022/02/19 09:24:06;;;;;;;4.47;1.38;;;-3.20;99.90;;;;;;4931878;29;20058;-68
2022/02/19 09:26:31;;;;;;;2.65;1.55;;;-3.20;99.90;;;;;;4934571;29;20055;-68
2022/02/19 09:28:57;;;;;;;2.47;1.50;;;-3.10;99.90;;;;;;4934024;29;20095;-67
2022/02/19 09:31:23;;;;;;;4.25;1.90;;;-3.10;99.90;;;;;;4934080;29;20103;-67
2022/02/19 09:33:49;;;;;;;4.78;1.60;;;-3.00;99.90;;;;;;4934814;29;20123;-67
2022/02/19 09:36:15;;;;;;;3.58;1.63;;;-2.90;99.90;;;;;;4932963;29;20470;-67
2022/02/19 09:38:42;;;;;;;2.55;1.35;;;-2.90;99.90;;;;;;4934498;29;20044;-68
2022/02/19 09:41:11;;;;;;;3.63;1.60;;;-2.90;99.90;;;;;;4934649;29;20479;-67
2022/02/19 09:43:38;;;;;;;5.40;1.73;;;-2.80;99.90;;;;;;4934048;29;20030;-69
2022/02/19 09:46:05;;;;;;;4.45;1.75;;;-2.80;99.90;;;;;;4934312;29;20052;-69
2022/02/19 09:48:31;;;;;;;1.90;1.25;;;-2.70;99.90;;;;;;4934264;29;20035;-69
2022/02/19 09:50:58;;;;;;;3.30;1.40;;;-2.60;99.90;;;;;;4934396;29;20446;-69
2022/02/19 09:53:28;;;;;;;4.63;2.00;;;-2.60;99.90;;;;;;4934284;29;20027;-69
2022/02/19 09:55:55;;;;;;;3.35;1.58;;;-2.60;99.90;;;;;;4934404;29;20086;-69
2022/02/19 09:58:23;;;;;;;2.72;1.40;;;-2.50;99.90;;;;;;4934256;29;20028;-69
2022/02/19 10:00:49;;;;;;;4.05;1.42;;;-2.50;99.90;;;;;;4933957;29;20040;-70
2022/02/19 10:03:17;;;;;;;3.90;1.25;;;-2.40;99.90;;;;;;4934686;29;20015;-68
2022/02/19 10:05:43;;;;;;;2.38;1.40;;;-2.40;99.90;;;;;;4934224;29;20028;-68
2022/02/19 10:08:10;;;;;;;1.83;1.40;;;-2.30;99.90;;;;;;4934349;29;20020;-69
2022/02/19 10:10:55;;;;;;;3.25;1.42;;;-2.30;99.90;;;;;;4934005;29;20027;-70
2022/02/19 10:13:34;;;;;;;2.10;1.23;;;-2.20;99.90;;;;;;4934023;29;20518;-71
2022/02/19 10:16:05;;;;;;;2.40;1.60;;;-2.20;99.90;;;;;;4936507;29;20047;-71
2022/02/19 10:18:37;;;;;;;3.00;1.55;;;-2.10;99.90;;;;;;4940369;29;20079;-71
2022/02/19 10:21:16;;;;;;;5.20;1.58;;;-2.10;99.90;;;;;;4939704;29;20046;-70
2022/02/19 10:23:50;;;;;;;3.05;1.65;;;-2.00;99.90;;;;;;4936598;29;20483;-70
2022/02/19 10:26:27;;;;;;;3.95;1.35;;;-1.90;99.90;;;;;;4937587;29;20074;-70
2022/02/19 10:29:06;;;;;;;4.90;1.50;;;-1.90;99.90;;;;;;4936760;29;20024;-70
2022/02/19 10:31:33;;;;;;;3.00;1.70;;;-1.90;99.90;;;;;;4937455;29;20023;-70
2022/02/19 10:34:14;;;;;;;3.40;1.55;;;-1.80;99.90;;;;;;4937488;29;20024;-70
2022/02/19 10:36:46;;;;;;;1.75;1.20;;;-1.80;99.90;;;;;;4936962;29;20046;-70
2022/02/19 10:39:11;;;;;;;2.40;1.52;;;-1.70;99.90;;;;;;4936984;29;20036;-68
2022/02/19 10:41:39;;;;;;;2.88;1.60;;;-1.60;99.90;;;;;;4937251;29;20578;-69
2022/02/19 10:44:26;;;;;;;2.92;1.58;;;-1.60;99.90;;;;;;4936833;29;20026;-70
2022/02/19 10:46:57;;;;;;;3.78;1.52;;;-1.60;99.90;;;;;;4935772;29;20028;-70
2022/02/19 10:49:24;;;;;;;5.90;1.65;;;-1.50;99.90;;;;;;4937080;29;20028;-70
2022/02/19 10:51:51;;;;;;;2.60;1.48;;;-1.40;99.90;;;;;;4937139;29;20102;-70
2022/02/19 10:54:22;;;;;;;3.47;1.67;;;-1.40;99.90;;;;;;4937076;29;20020;-71
2022/02/19 10:56:48;;;;;;;4.72;1.70;;;-1.40;99.90;;;;;;4936903;29;20031;-71
2022/02/19 10:59:17;;;;;;;2.42;1.35;;;-1.30;99.90;;;;;;4937257;29;20110;-71
2022/02/19 11:01:50;;;;;;;5.57;1.85;;;-1.30;99.90;;;;;;4936955;29;20058;-70
2022/02/19 11:04:17;;;;;;;3.30;1.55;;;-1.30;99.90;;;;;;4936939;29;20099;-71
2022/02/19 11:06:43;;;;;;;2.55;1.55;;;-1.20;99.90;;;;;;4936400;29;20390;-71
2022/02/19 11:09:10;;;;;;;3.10;1.42;;;-1.20;99.90;;;;;;4936828;29;20028;-68
2022/02/19 11:11:38;;;;;;;2.88;1.40;;;-1.20;99.90;;;;;;4936354;29;20020;-71
2022/02/19 11:14:08;;;;;;;2.58;1.35;;;-1.20;99.90;;;;;;4936751;29;20059;-70
2022/02/19 11:16:34;;;;;;;2.70;1.60;;;-1.10;99.90;;;;;;4936609;29;20186;-70
2022/02/19 11:19:01;;;;;;;2.38;1.38;;;-1.10;99.90;;;;;;4936807;29;20028;-71
2022/02/19 11:21:31;;;;;;;6.18;1.60;;;-1.10;99.90;;;;;;4936001;29;20511;-71
2022/02/19 11:24:02;;;;;;;2.38;1.60;;;-1.00;99.90;;;;;;4936760;29;20023;-70
2022/02/19 11:26:29;;;;;;;5.25;1.67;;;-1.00;99.90;;;;;;4934499;29;20487;-71
2022/02/19 11:29:07;;;;;;;4.43;1.48;;;-1.00;99.90;;;;;;4936560;29;20135;-71
2022/02/19 11:31:34;;;;;;;3.38;1.60;;;-1.00;99.90;;;;;;4936493;29;20388;-71
2022/02/19 11:34:02;;;;;;;3.95;1.70;;;-1.00;99.90;;;;;;4936457;29;20031;-71
2022/02/19 11:36:30;;;;;;;2.60;1.70;;;-1.00;99.90;;;;;;4935734;29;20127;-71
2022/02/19 11:38:56;;;;;;;5.18;1.70;;;-1.00;99.90;;;;;;4936541;29;20043;-71
2022/02/19 11:41:46;;;;;;;2.80;1.50;;;-1.00;99.90;;;;;;4936276;29;20027;-71
2022/02/19 11:44:23;;;;;;;4.65;1.70;;;-1.00;99.90;;;;;;4936632;29;20027;-70
2022/02/19 11:46:54;;;;;;;2.85;1.55;;;-1.00;99.90;;;;;;4936091;29;20440;-69
2022/02/19 11:49:26;;;;;;;3.45;1.80;;;-1.00;99.90;;;;;;4935999;29;20395;-70
2022/02/19 11:52:06;;;;;;;2.58;1.55;;;-1.00;99.90;;;;;;4935756;29;20035;-68
2022/02/19 11:54:34;;;;;;;5.95;1.85;;;-1.00;99.90;;;;;;4935648;29;20395;-68
2022/02/19 11:57:17;;;;;;;3.75;1.88;;;-0.90;99.90;;;;;;4935880;29;20075;-68
2022/02/19 11:59:48;;;;;;;5.50;1.75;;;-1.00;99.90;;;;;;4935659;29;20030;-68
2022/02/19 12:02:27;;;;;;;3.03;1.73;;;-0.90;99.90;;;;;;4935981;29;20024;-68
2022/02/19 12:05:16;;;;;;;2.92;1.60;;;-0.90;99.90;;;;;;4935786;29;20050;-68
2022/02/19 12:08:02;;;;;;;2.42;1.67;;;-0.90;99.90;;;;;;4935608;29;20024;-68
2022/02/19 12:10:30;;;;;;;6.07;1.75;;;-0.80;99.90;;;;;;4932508;29;20035;-68
2022/02/19 12:13:05;;;;;;;3.30;1.80;;;-0.80;99.90;;;;;;4934836;29;20475;-67
2022/02/19 12:15:31;;;;;;;4.43;1.67;;;-0.80;99.90;;;;;;4934992;29;20036;-68
2022/02/19 12:17:57;;;;;;;3.10;1.50;;;-0.70;99.90;;;;;;4932472;29;20102;-68
2022/02/19 12:20:28;;;;;;;4.80;1.75;;;-0.70;99.90;;;;;;4934886;29;20083;-68
2022/02/19 12:22:58;;;;;;;3.72;1.75;;;-0.70;99.90;;;;;;4934944;29;20026;-68
2022/02/19 12:25:24;;;;;;;5.53;1.40;;;-0.80;99.90;;;;;;4934692;29;20038;-71
2022/02/19 12:28:16;;;;;;;5.25;1.70;;;0.30;99.90;;;;;;4935373;29;20043;-71
2022/02/19 12:30:43;;;;;;;4.38;1.88;;;1.40;99.90;;;;;;4933877;29;20038;-70
2022/02/19 12:33:09;;;;;;;2.92;1.83;;;1.30;99.90;;;;;;4935566;29;20416;-70
2022/02/19 12:35:37;;;;;;;5.88;1.60;;;1.00;99.90;;;;;;4935140;29;20130;-69
2022/02/19 12:38:04;;;;;;;4.78;1.77;;;0.50;99.90;;;;;;4934448;29;20047;-70
2022/02/19 12:40:30;;;;;;;3.42;1.88;;;0.20;99.90;;;;;;4934340;29;20047;-69
2022/02/19 12:42:57;;;;;;;4.13;1.92;;;0.10;99.90;;;;;;4934663;29;20492;-70
2022/02/19 12:45:23;;;;;;;4.25;1.67;;;0.00;99.90;;;;;;4934707;29;20494;-69
2022/02/19 12:47:49;;;;;;;2.85;1.60;;;-0.20;99.90;;;;;;4934434;29;20098;-69
2022/02/19 12:50:18;;;;;;;4.40;1.73;;;-0.20;99.90;;;;;;4935017;29;20432;-69
2022/02/19 12:52:51;;;;;;;3.72;1.83;;;-0.30;99.90;;;;;;4934958;29;20020;-69
2022/02/19 12:55:19;;;;;;;4.55;2.10;;;-0.30;99.90;;;;;;4934970;29;20031;-69
2022/02/19 12:57:50;;;;;;;4.18;2.00;;;-0.30;99.90;;;;;;4934828;29;20046;-69
2022/02/19 13:00:17;;;;;;;4.65;1.40;;;-0.30;99.90;;;;;;4935053;29;20105;-69
2022/02/19 13:02:47;;;;;;;2.25;1.50;;;-0.30;99.90;;;;;;4934870;29;20024;-69
2022/02/19 13:05:14;;;;;;;3.70;1.87;;;-0.30;99.90;;;;;;4933531;29;20483;-69
2022/02/19 13:07:41;;;;;;;2.45;1.40;;;-0.30;99.90;;;;;;4936152;29;20431;-69
2022/02/19 13:10:08;;;;;;;2.28;1.67;;;-0.40;99.90;;;;;;4934695;29;20036;-70
2022/02/19 13:12:39;;;;;;;6.70;2.17;;;-0.40;99.90;;;;;;4934418;29;20024;-70
2022/02/19 13:15:10;;;;;;;2.00;1.48;;;-0.50;99.90;;;;;;4934352;29;20115;-70
2022/02/19 13:17:38;;;;;;;3.72;1.98;;;-0.50;99.90;;;;;;4934241;29;20443;-70
2022/02/19 13:20:09;;;;;;;6.53;2.58;;;-0.50;99.90;;;;;;4934338;29;20031;-70
2022/02/19 13:22:37;;;;;;;3.10;1.90;;;-0.50;99.90;;;;;;4934411;29;20028;-70
2022/02/19 13:25:06;;;;;;;3.92;2.00;;;-0.50;99.90;;;;;;4934484;29;20083;-70
2022/02/19 13:27:32;;;;;;;3.67;1.80;;;-0.60;99.90;;;;;;4934166;29;20028;-70
2022/02/19 13:30:01;;;;;;;4.18;1.60;;;-0.50;99.90;;;;;;4934557;29;20035;-71
2022/02/19 13:32:33;;;;;;;2.65;1.50;;;-0.60;99.90;;;;;;4934077;29;20024;-70
2022/02/19 13:35:21;;;;;;;4.18;1.85;;;-0.60;99.90;;;;;;4934020;29;20035;-70
2022/02/19 13:37:48;;;;;;;6.38;2.17;;;-0.60;99.90;;;;;;4931946;29;20047;-70
2022/02/19 13:40:18;;;;;;;2.67;1.88;;;-0.70;99.90;;;;;;4934226;29;20019;-70
2022/02/19 13:42:46;;;;;;;5.73;2.23;;;-0.60;99.90;;;;;;4931455;29;20047;-71
2022/02/19 13:45:25;;;;;;;4.18;1.92;;;-0.60;99.90;;;;;;4934216;29;20314;-70
2022/02/19 13:47:52;;;;;;;3.60;1.95;;;-0.60;99.90;;;;;;4932920;29;20109;-71
2022/02/19 13:50:49;;;;;;;3.95;2.00;;;-0.60;99.90;;;;;;4935236;29;20023;-71
2022/02/19 13:53:21;;;;;;;4.25;1.80;;;-0.70;99.90;;;;;;4932900;29;20075;-70
2022/02/19 13:55:55;;;;;;;3.05;1.65;;;-0.70;99.90;;;;;;4935480;29;20040;-71
2022/02/19 13:58:34;;;;;;;5.07;1.80;;;-0.70;99.90;;;;;;4937746;29;20016;-71
2022/02/19 14:01:19;;;;;;;4.93;2.33;;;-0.70;99.90;;;;;;4937358;29;20491;-69
2022/02/19 14:03:49;;;;;;;2.00;1.52;;;-0.30;99.90;;;;;;4937826;29;20118;-69